sensor_id;sensor_type;location;lat;lon;timestamp;pressure;altitude;pressure_sealevel;temperature;humidity
66090;BME280;53113;45.602;11.904;2022-09-30T00:01:25;100067.98;;;14.31;71.57
66090;BME280;53113;45.602;11.904;2022-09-30T00:03:53;100061.11;;;14.32;71.48
66090;BME280;53113;45.602;11.904;2022-09-30T00:06:19;100051.39;;;14.31;71.44
66090;BME280;53113;45.602;11.904;2022-09-30T00:08:46;100057.23;;;14.31;71.38
66090;BME280;53113;45.602;11.904;2022-09-30T00:11:18;100055.90;;;14.28;71.33
66090;BME280;53113;45.602;11.904;2022-09-30T00:13:46;100056.29;;;14.27;71.37
66090;BME280;53113;45.602;11.904;2022-09-30T00:16:15;100060.25;;;14.22;71.46
66090;BME280;53113;45.602;11.904;2022-09-30T00:18:42;100057.81;;;14.20;71.48
66090;BME280;53113;45.602;11.904;2022-09-30T00:21:10;100062.12;;;14.18;71.59
66090;BME280;53113;45.602;11.904;2022-09-30T00:23:37;100066.75;;;14.18;71.63
66090;BME280;53113;45.602;11.904;2022-09-30T00:26:10;100072.71;;;14.21;71.54
66090;BME280;53113;45.602;11.904;2022-09-30T00:28:38;100070.77;;;14.21;71.54
66090;BME280;53113;45.602;11.904;2022-09-30T00:31:06;100069.45;;;14.18;71.67
66090;BME280;53113;45.602;11.904;2022-09-30T00:33:33;100065.64;;;14.17;71.70
66090;BME280;53113;45.602;11.904;2022-09-30T00:36:00;100071.25;;;14.16;71.79
66090;BME280;53113;45.602;11.904;2022-09-30T00:38:26;100071.41;;;14.16;71.93
66090;BME280;53113;45.602;11.904;2022-09-30T00:40:52;100068.08;;;14.17;72.00
66090;BME280;53113;45.602;11.904;2022-09-30T00:43:43;100067.83;;;14.18;72.00
66090;BME280;53113;45.602;11.904;2022-09-30T00:48:52;100075.59;;;14.17;72.13
66090;BME280;53113;45.602;11.904;2022-09-30T00:51:27;100077.83;;;14.16;72.17
66090;BME280;53113;45.602;11.904;2022-09-30T00:54:00;100079.84;;;14.14;72.16
66090;BME280;53113;45.602;11.904;2022-09-30T00:56:36;100077.53;;;14.14;72.24
66090;BME280;53113;45.602;11.904;2022-09-30T00:59:07;100075.02;;;14.16;72.15
66090;BME280;53113;45.602;11.904;2022-09-30T01:01:39;100075.09;;;14.17;72.12
66090;BME280;53113;45.602;11.904;2022-09-30T01:04:11;100081.90;;;14.18;72.17
66090;BME280;53113;45.602;11.904;2022-09-30T01:06:39;100085.60;;;14.17;72.26
66090;BME280;53113;45.602;11.904;2022-09-30T01:09:06;100085.95;;;14.15;72.35
66090;BME280;53113;45.602;11.904;2022-09-30T01:11:32;100083.30;;;14.13;72.34
66090;BME280;53113;45.602;11.904;2022-09-30T01:14:03;100083.35;;;14.12;72.34
66090;BME280;53113;45.602;11.904;2022-09-30T01:19:25;100088.02;;;14.17;72.30
66090;BME280;53113;45.602;11.904;2022-09-30T01:35:22;100101.65;;;14.13;72.17
66090;BME280;53113;45.602;11.904;2022-09-30T01:49:11;100123.98;;;14.05;72.19
66090;BME280;53113;45.602;11.904;2022-09-30T01:54:45;100130.14;;;14.08;72.23
66090;BME280;53113;45.602;11.904;2022-09-30T01:57:20;100133.43;;;14.09;72.29
66090;BME280;53113;45.602;11.904;2022-09-30T01:59:53;100137.98;;;14.09;72.29
66090;BME280;53113;45.602;11.904;2022-09-30T02:02:26;100146.44;;;14.08;72.36
66090;BME280;53113;45.602;11.904;2022-09-30T02:05:04;100150.45;;;14.05;72.46
66090;BME280;53113;45.602;11.904;2022-09-30T02:07:38;100157.63;;;14.05;72.57
66090;BME280;53113;45.602;11.904;2022-09-30T02:10:19;100159.91;;;14.05;72.60
66090;BME280;53113;45.602;11.904;2022-09-30T02:12:51;100164.65;;;14.08;72.75
66090;BME280;53113;45.602;11.904;2022-09-30T02:15:22;100177.63;;;14.11;72.74
66090;BME280;53113;45.602;11.904;2022-09-30T02:18:03;100177.24;;;14.13;72.87
66090;BME280;53113;45.602;11.904;2022-09-30T02:20:37;100183.17;;;14.15;72.96
66090;BME280;53113;45.602;11.904;2022-09-30T02:23:11;100184.19;;;14.15;72.95
66090;BME280;53113;45.602;11.904;2022-09-30T02:25:43;100177.30;;;14.15;73.14
66090;BME280;53113;45.602;11.904;2022-09-30T02:28:20;100176.27;;;14.14;73.11
66090;BME280;53113;45.602;11.904;2022-09-30T02:30:50;100172.88;;;14.16;73.18
66090;BME280;53113;45.602;11.904;2022-09-30T02:33:25;100171.41;;;14.20;73.09
66090;BME280;53113;45.602;11.904;2022-09-30T02:35:57;100171.70;;;14.22;72.92
66090;BME280;53113;45.602;11.904;2022-09-30T02:38:37;100172.89;;;14.25;72.80
66090;BME280;53113;45.602;11.904;2022-09-30T02:41:17;100172.61;;;14.22;72.88
66090;BME280;53113;45.602;11.904;2022-09-30T02:43:47;100170.59;;;14.21;72.78
66090;BME280;53113;45.602;11.904;2022-09-30T02:46:30;100175.20;;;14.19;72.73
66090;BME280;53113;45.602;11.904;2022-09-30T02:49:05;100174.88;;;14.17;72.94
66090;BME280;53113;45.602;11.904;2022-09-30T02:54:35;100176.55;;;14.20;72.81
66090;BME280;53113;45.602;11.904;2022-09-30T02:59:48;100184.19;;;14.22;72.82
66090;BME280;53113;45.602;11.904;2022-09-30T03:02:16;100190.56;;;14.23;72.93
66090;BME280;53113;45.602;11.904;2022-09-30T03:04:44;100195.20;;;14.23;72.92
66090;BME280;53113;45.602;11.904;2022-09-30T03:07:11;100204.02;;;14.21;72.88
66090;BME280;53113;45.602;11.904;2022-09-30T03:09:38;100208.19;;;14.23;73.03
66090;BME280;53113;45.602;11.904;2022-09-30T03:12:14;100214.51;;;14.25;73.00
66090;BME280;53113;45.602;11.904;2022-09-30T03:20:43;100217.54;;;14.34;72.99
66090;BME280;53113;45.602;11.904;2022-09-30T03:23:54;100218.91;;;14.35;73.03
66090;BME280;53113;45.602;11.904;2022-09-30T03:27:44;100227.10;;;14.35;73.00
66090;BME280;53113;45.602;11.904;2022-09-30T03:30:06;100229.77;;;14.35;72.98
66090;BME280;53113;45.602;11.904;2022-09-30T03:33:02;100235.45;;;14.37;73.02
66090;BME280;53113;45.602;11.904;2022-09-30T03:35:47;100233.86;;;14.40;72.96
66090;BME280;53113;45.602;11.904;2022-09-30T03:38:27;100241.50;;;14.42;72.91
66090;BME280;53113;45.602;11.904;2022-09-30T03:41:24;100244.14;;;14.43;72.88
66090;BME280;53113;45.602;11.904;2022-09-30T03:44:15;100243.63;;;14.42;72.80
66090;BME280;53113;45.602;11.904;2022-09-30T03:46:48;100248.95;;;14.40;72.80
66090;BME280;53113;45.602;11.904;2022-09-30T03:49:22;100251.70;;;14.38;72.70
66090;BME280;53113;45.602;11.904;2022-09-30T03:51:49;100247.67;;;14.36;72.70
66090;BME280;53113;45.602;11.904;2022-09-30T03:54:14;100248.36;;;14.38;72.60
66090;BME280;53113;45.602;11.904;2022-09-30T03:56:41;100248.86;;;14.38;72.49
66090;BME280;53113;45.602;11.904;2022-09-30T03:59:24;100250.02;;;14.37;72.49
66090;BME280;53113;45.602;11.904;2022-09-30T04:01:52;100262.40;;;14.34;72.44
66090;BME280;53113;45.602;11.904;2022-09-30T04:04:19;100264.45;;;14.31;72.35
66090;BME280;53113;45.602;11.904;2022-09-30T04:06:45;100269.02;;;14.27;72.42
66090;BME280;53113;45.602;11.904;2022-09-30T04:09:12;100277.14;;;14.24;72.42
66090;BME280;53113;45.602;11.904;2022-09-30T04:11:38;100283.37;;;14.20;72.41
66090;BME280;53113;45.602;11.904;2022-09-30T04:14:04;100283.98;;;14.21;72.47
66090;BME280;53113;45.602;11.904;2022-09-30T04:16:31;100285.66;;;14.22;72.40
66090;BME280;53113;45.602;11.904;2022-09-30T04:18:57;100291.02;;;14.20;72.40
66090;BME280;53113;45.602;11.904;2022-09-30T04:21:24;100295.70;;;14.18;72.34
66090;BME280;53113;45.602;11.904;2022-09-30T04:23:54;100284.80;;;14.15;72.19
66090;BME280;53113;45.602;11.904;2022-09-30T04:26:20;100282.16;;;14.11;72.24
66090;BME280;53113;45.602;11.904;2022-09-30T04:28:47;100285.44;;;14.07;72.18
66090;BME280;53113;45.602;11.904;2022-09-30T04:31:14;100282.99;;;14.02;72.12
66090;BME280;53113;45.602;11.904;2022-09-30T04:33:42;100283.61;;;14.01;72.11
66090;BME280;53113;45.602;11.904;2022-09-30T04:36:09;100287.27;;;14.00;72.01
66090;BME280;53113;45.602;11.904;2022-09-30T04:38:35;100285.55;;;13.98;72.00
66090;BME280;53113;45.602;11.904;2022-09-30T04:41:03;100280.84;;;13.93;72.11
66090;BME280;53113;45.602;11.904;2022-09-30T04:43:30;100289.19;;;13.90;72.14
66090;BME280;53113;45.602;11.904;2022-09-30T04:45:58;100303.02;;;13.85;72.11
66090;BME280;53113;45.602;11.904;2022-09-30T04:48:24;100310.64;;;13.83;72.30
66090;BME280;53113;45.602;11.904;2022-09-30T04:50:52;100308.45;;;13.82;72.30
66090;BME280;53113;45.602;11.904;2022-09-30T04:53:19;100314.51;;;13.82;72.23
66090;BME280;53113;45.602;11.904;2022-09-30T04:55:45;100320.20;;;13.80;72.27
66090;BME280;53113;45.602;11.904;2022-09-30T04:58:11;100319.09;;;13.77;72.12
66090;BME280;53113;45.602;11.904;2022-09-30T05:00:37;100320.77;;;13.74;72.21
66090;BME280;53113;45.602;11.904;2022-09-30T05:03:03;100327.14;;;13.70;72.19
66090;BME280;53113;45.602;11.904;2022-09-30T05:05:31;100330.10;;;13.68;72.29
66090;BME280;53113;45.602;11.904;2022-09-30T05:08:04;100335.41;;;13.68;72.50
66090;BME280;53113;45.602;11.904;2022-09-30T05:10:30;100346.59;;;13.70;72.48
66090;BME280;53113;45.602;11.904;2022-09-30T05:12:57;100347.05;;;13.71;72.48
66090;BME280;53113;45.602;11.904;2022-09-30T05:15:23;100349.59;;;13.70;72.59
66090;BME280;53113;45.602;11.904;2022-09-30T05:17:50;100357.46;;;13.68;72.66
66090;BME280;53113;45.602;11.904;2022-09-30T05:20:16;100363.33;;;13.66;72.63
66090;BME280;53113;45.602;11.904;2022-09-30T05:22:42;100371.39;;;13.66;72.60
66090;BME280;53113;45.602;11.904;2022-09-30T05:25:08;100370.92;;;13.63;72.66
66090;BME280;53113;45.602;11.904;2022-09-30T05:27:34;100378.09;;;13.63;72.82
66090;BME280;53113;45.602;11.904;2022-09-30T05:30:00;100381.79;;;13.65;72.76
66090;BME280;53113;45.602;11.904;2022-09-30T05:32:26;100387.58;;;13.66;72.82
66090;BME280;53113;45.602;11.904;2022-09-30T05:34:52;100389.00;;;13.67;72.91
66090;BME280;53113;45.602;11.904;2022-09-30T05:37:20;100388.82;;;13.68;73.00
66090;BME280;53113;45.602;11.904;2022-09-30T05:39:46;100389.66;;;13.66;72.98
66090;BME280;53113;45.602;11.904;2022-09-30T05:42:12;100389.12;;;13.66;73.11
66090;BME280;53113;45.602;11.904;2022-09-30T05:44:37;100389.34;;;13.68;73.17
66090;BME280;53113;45.602;11.904;2022-09-30T05:47:03;100391.19;;;13.70;73.22
66090;BME280;53113;45.602;11.904;2022-09-30T05:49:30;100398.05;;;13.75;73.28
66090;BME280;53113;45.602;11.904;2022-09-30T05:52:00;100399.28;;;13.79;73.46
66090;BME280;53113;45.602;11.904;2022-09-30T05:54:25;100393.14;;;13.80;73.61
66090;BME280;53113;45.602;11.904;2022-09-30T05:56:51;100395.95;;;13.84;73.73
66090;BME280;53113;45.602;11.904;2022-09-30T05:59:17;100402.69;;;13.86;73.85
66090;BME280;53113;45.602;11.904;2022-09-30T06:01:44;100407.40;;;13.89;74.00
66090;BME280;53113;45.602;11.904;2022-09-30T06:04:10;100414.71;;;13.96;74.30
66090;BME280;53113;45.602;11.904;2022-09-30T06:06:36;100413.08;;;14.04;74.22
66090;BME280;53113;45.602;11.904;2022-09-30T06:09:03;100416.77;;;14.12;74.22
66090;BME280;53113;45.602;11.904;2022-09-30T06:11:29;100424.80;;;14.18;74.27
66090;BME280;53113;45.602;11.904;2022-09-30T06:13:56;100430.60;;;14.22;74.25
66090;BME280;53113;45.602;11.904;2022-09-30T06:16:22;100434.77;;;14.25;74.18
66090;BME280;53113;45.602;11.904;2022-09-30T06:18:48;100435.08;;;14.29;74.32
66090;BME280;53113;45.602;11.904;2022-09-30T06:21:15;100424.93;;;14.33;74.43
66090;BME280;53113;45.602;11.904;2022-09-30T06:23:43;100422.15;;;14.40;74.28
66090;BME280;53113;45.602;11.904;2022-09-30T06:26:11;100419.14;;;14.45;74.28
66090;BME280;53113;45.602;11.904;2022-09-30T06:28:39;100423.28;;;14.50;74.38
66090;BME280;53113;45.602;11.904;2022-09-30T06:31:05;100424.20;;;14.56;74.35
66090;BME280;53113;45.602;11.904;2022-09-30T06:33:32;100432.22;;;14.61;74.46
66090;BME280;53113;45.602;11.904;2022-09-30T06:35:58;100444.36;;;14.68;74.63
66090;BME280;53113;45.602;11.904;2022-09-30T06:38:26;100459.23;;;14.78;74.53
66090;BME280;53113;45.602;11.904;2022-09-30T06:40:53;100469.10;;;14.87;74.50
66090;BME280;53113;45.602;11.904;2022-09-30T06:43:20;100474.59;;;14.95;74.45
66090;BME280;53113;45.602;11.904;2022-09-30T06:45:47;100482.02;;;15.01;74.50
66090;BME280;53113;45.602;11.904;2022-09-30T06:48:13;100488.02;;;15.07;74.59
66090;BME280;53113;45.602;11.904;2022-09-30T06:50:40;100490.08;;;15.15;74.69
66090;BME280;53113;45.602;11.904;2022-09-30T06:53:07;100493.02;;;15.24;74.78
66090;BME280;53113;45.602;11.904;2022-09-30T06:55:35;100493.42;;;15.35;74.90
66090;BME280;53113;45.602;11.904;2022-09-30T06:58:05;100499.47;;;15.46;74.88
66090;BME280;53113;45.602;11.904;2022-09-30T07:00:35;100510.00;;;15.53;74.87
66090;BME280;53113;45.602;11.904;2022-09-30T07:03:02;100524.27;;;15.60;74.77
66090;BME280;53113;45.602;11.904;2022-09-30T07:05:30;100534.86;;;15.64;74.81
66090;BME280;53113;45.602;11.904;2022-09-30T07:07:56;100540.86;;;15.71;74.66
66090;BME280;53113;45.602;11.904;2022-09-30T07:10:22;100542.98;;;15.79;74.63
66090;BME280;53113;45.602;11.904;2022-09-30T07:12:49;100540.10;;;15.86;74.63
66090;BME280;53113;45.602;11.904;2022-09-30T07:15:16;100529.73;;;15.93;74.58
66090;BME280;53113;45.602;11.904;2022-09-30T07:17:41;100534.03;;;16.02;74.86
66090;BME280;53113;45.602;11.904;2022-09-30T07:20:08;100540.13;;;16.14;75.13
66090;BME280;53113;45.602;11.904;2022-09-30T07:22:34;100549.42;;;16.26;74.93
66090;BME280;53113;45.602;11.904;2022-09-30T07:25:02;100550.98;;;16.39;74.66
66090;BME280;53113;45.602;11.904;2022-09-30T07:27:30;100551.59;;;16.50;74.34
66090;BME280;53113;45.602;11.904;2022-09-30T07:29:58;100559.63;;;16.61;74.07
66090;BME280;53113;45.602;11.904;2022-09-30T07:32:27;100561.88;;;16.68;73.84
66090;BME280;53113;45.602;11.904;2022-09-30T07:34:52;100561.15;;;16.73;73.54
66090;BME280;53113;45.602;11.904;2022-09-30T07:37:18;100563.21;;;16.79;73.45
66090;BME280;53113;45.602;11.904;2022-09-30T07:39:47;100568.70;;;16.85;73.35
66090;BME280;53113;45.602;11.904;2022-09-30T07:42:15;100573.14;;;16.94;73.18
66090;BME280;53113;45.602;11.904;2022-09-30T07:44:41;100577.74;;;17.03;72.96
66090;BME280;53113;45.602;11.904;2022-09-30T07:47:09;100569.55;;;17.09;72.81
66090;BME280;53113;45.602;11.904;2022-09-30T07:49:37;100567.41;;;17.14;72.66
66090;BME280;53113;45.602;11.904;2022-09-30T07:52:04;100566.91;;;17.19;72.56
66090;BME280;53113;45.602;11.904;2022-09-30T07:54:32;100571.70;;;17.24;72.49
66090;BME280;53113;45.602;11.904;2022-09-30T07:57:00;100577.80;;;17.31;72.54
66090;BME280;53113;45.602;11.904;2022-09-30T07:59:29;100582.13;;;17.41;72.64
66090;BME280;53113;45.602;11.904;2022-09-30T08:01:56;100585.52;;;17.51;72.71
66090;BME280;53113;45.602;11.904;2022-09-30T08:04:23;100587.40;;;17.63;72.69
66090;BME280;53113;45.602;11.904;2022-09-30T08:06:58;100593.09;;;17.73;72.37
66090;BME280;53113;45.602;11.904;2022-09-30T08:09:25;100595.98;;;17.82;72.15
66090;BME280;53113;45.602;11.904;2022-09-30T08:11:52;100602.90;;;17.89;71.93
66090;BME280;53113;45.602;11.904;2022-09-30T08:14:24;100606.77;;;17.96;71.71
66090;BME280;53113;45.602;11.904;2022-09-30T08:16:50;100606.75;;;18.03;71.33
66090;BME280;53113;45.602;11.904;2022-09-30T08:19:19;100612.75;;;18.11;71.11
66090;BME280;53113;45.602;11.904;2022-09-30T08:21:47;100613.36;;;18.18;71.12
66090;BME280;53113;45.602;11.904;2022-09-30T08:24:13;100617.52;;;18.28;70.86
66090;BME280;53113;45.602;11.904;2022-09-30T08:26:40;100623.11;;;18.31;70.62
66090;BME280;53113;45.602;11.904;2022-09-30T08:29:05;100631.96;;;18.35;70.33
66090;BME280;53113;45.602;11.904;2022-09-30T08:31:32;100635.33;;;18.37;70.32
66090;BME280;53113;45.602;11.904;2022-09-30T08:33:58;100640.66;;;18.42;70.18
66090;BME280;53113;45.602;11.904;2022-09-30T08:36:25;100641.13;;;18.48;69.99
66090;BME280;53113;45.602;11.904;2022-09-30T08:38:53;100638.02;;;18.54;70.15
66090;BME280;53113;45.602;11.904;2022-09-30T08:44:34;100634.46;;;18.69;70.12
66090;BME280;53113;45.602;11.904;2022-09-30T08:47:17;100640.45;;;18.78;70.28
66090;BME280;53113;45.602;11.904;2022-09-30T08:52:28;100645.76;;;18.96;69.98
66090;BME280;53113;45.602;11.904;2022-09-30T08:54:57;100649.62;;;19.10;70.05
66090;BME280;53113;45.602;11.904;2022-09-30T08:57:23;100646.42;;;19.29;69.85
66090;BME280;53113;45.602;11.904;2022-09-30T08:59:59;100647.98;;;19.51;69.64
66090;BME280;53113;45.602;11.904;2022-09-30T09:02:32;100654.67;;;19.71;69.29
66090;BME280;53113;45.602;11.904;2022-09-30T09:05:05;100656.02;;;19.87;68.73
66090;BME280;53113;45.602;11.904;2022-09-30T09:07:45;100660.70;;;19.98;67.94
66090;BME280;53113;45.602;11.904;2022-09-30T09:13:08;100673.05;;;20.05;67.03
66090;BME280;53113;45.602;11.904;2022-09-30T09:20:55;100693.63;;;20.01;66.46
66090;BME280;53113;45.602;11.904;2022-09-30T09:23:24;100688.73;;;20.00;66.38
66090;BME280;53113;45.602;11.904;2022-09-30T09:25:51;100692.08;;;20.00;66.24
66090;BME280;53113;45.602;11.904;2022-09-30T09:31:03;100699.63;;;20.05;66.16
66090;BME280;53113;45.602;11.904;2022-09-30T09:33:31;100706.02;;;20.09;66.02
66090;BME280;53113;45.602;11.904;2022-09-30T09:38:59;100700.48;;;20.13;65.79
66090;BME280;53113;45.602;11.904;2022-09-30T09:41:49;100705.66;;;20.17;65.78
66090;BME280;53113;45.602;11.904;2022-09-30T09:44:33;100705.33;;;20.21;65.63
66090;BME280;53113;45.602;11.904;2022-09-30T09:47:11;100710.28;;;20.24;65.74
66090;BME280;53113;45.602;11.904;2022-09-30T09:49:53;100711.80;;;20.28;65.48
66090;BME280;53113;45.602;11.904;2022-09-30T09:54:54;100726.04;;;20.45;65.40
66090;BME280;53113;45.602;11.904;2022-09-30T09:57:25;100733.09;;;20.54;65.01
66090;BME280;53113;45.602;11.904;2022-09-30T10:00:11;100731.71;;;20.63;65.07
66090;BME280;53113;45.602;11.904;2022-09-30T10:03:15;100732.84;;;20.73;64.88
66090;BME280;53113;45.602;11.904;2022-09-30T10:06:10;100725.66;;;20.80;64.84
66090;BME280;53113;45.602;11.904;2022-09-30T10:08:39;100727.59;;;20.87;64.47
66090;BME280;53113;45.602;11.904;2022-09-30T10:11:20;100726.58;;;20.91;64.29
66090;BME280;53113;45.602;11.904;2022-09-30T10:13:47;100727.73;;;20.93;64.24
66090;BME280;53113;45.602;11.904;2022-09-30T10:18:57;100727.16;;;20.93;63.57
66090;BME280;53113;45.602;11.904;2022-09-30T10:21:26;100729.92;;;20.93;63.70
66090;BME280;53113;45.602;11.904;2022-09-30T10:23:53;100733.00;;;20.93;63.78
66090;BME280;53113;45.602;11.904;2022-09-30T10:26:21;100727.66;;;20.94;63.79
66090;BME280;53113;45.602;11.904;2022-09-30T10:31:29;100725.52;;;20.92;63.71
66090;BME280;53113;45.602;11.904;2022-09-30T10:36:40;100725.92;;;20.97;63.71
66090;BME280;53113;45.602;11.904;2022-09-30T10:39:23;100730.07;;;20.99;63.73
66090;BME280;53113;45.602;11.904;2022-09-30T10:42:04;100729.94;;;21.02;63.57
66090;BME280;53113;45.602;11.904;2022-09-30T10:44:42;100735.59;;;21.02;63.29
66090;BME280;53113;45.602;11.904;2022-09-30T10:47:17;100737.70;;;21.02;63.31
66090;BME280;53113;45.602;11.904;2022-09-30T10:50:05;100741.17;;;20.98;63.04
66090;BME280;53113;45.602;11.904;2022-09-30T10:52:52;100749.20;;;20.93;62.90
66090;BME280;53113;45.602;11.904;2022-09-30T10:57:51;100752.80;;;20.82;62.93
66090;BME280;53113;45.602;11.904;2022-09-30T11:00:23;100760.44;;;20.77;63.06
66090;BME280;53113;45.602;11.904;2022-09-30T11:03:01;100763.30;;;20.72;63.13
66090;BME280;53113;45.602;11.904;2022-09-30T11:05:35;100777.34;;;20.68;62.86
66090;BME280;53113;45.602;11.904;2022-09-30T11:08:23;100779.59;;;20.62;62.89
66090;BME280;53113;45.602;11.904;2022-09-30T11:11:13;100781.67;;;20.57;63.06
66090;BME280;53113;45.602;11.904;2022-09-30T11:21:50;100772.27;;;20.43;63.44
66090;BME280;53113;45.602;11.904;2022-09-30T11:30:32;100770.98;;;20.41;63.86
66090;BME280;53113;45.602;11.904;2022-09-30T11:38:09;100768.66;;;20.34;64.24
66090;BME280;53113;45.602;11.904;2022-09-30T11:57:26;100767.77;;;20.24;64.83
66090;BME280;53113;45.602;11.904;2022-09-30T12:02:36;100779.80;;;20.20;64.80
66090;BME280;53113;45.602;11.904;2022-09-30T12:05:11;100781.48;;;20.17;65.02
66090;BME280;53113;45.602;11.904;2022-09-30T12:08:29;100784.23;;;20.13;65.04
66090;BME280;53113;45.602;11.904;2022-09-30T12:10:33;100785.56;;;20.09;65.24
66090;BME280;53113;45.602;11.904;2022-09-30T12:13:05;100787.52;;;20.06;65.42
66090;BME280;53113;45.602;11.904;2022-09-30T12:15:39;100788.98;;;20.04;65.26
66090;BME280;53113;45.602;11.904;2022-09-30T12:18:13;100790.54;;;20.05;65.42
66090;BME280;53113;45.602;11.904;2022-09-30T12:20:46;100794.25;;;20.06;65.44
66090;BME280;53113;45.602;11.904;2022-09-30T12:23:32;100795.83;;;20.04;65.68
66090;BME280;53113;45.602;11.904;2022-09-30T12:26:02;100794.93;;;20.03;65.92
66090;BME280;53113;45.602;11.904;2022-09-30T12:28:34;100793.92;;;20.01;65.93
66090;BME280;53113;45.602;11.904;2022-09-30T12:48:23;100797.22;;;19.81;67.08
66090;BME280;53113;45.602;11.904;2022-09-30T12:50:53;100796.69;;;19.78;67.33
66090;BME280;53113;45.602;11.904;2022-09-30T12:53:27;100797.48;;;19.76;67.48
66090;BME280;53113;45.602;11.904;2022-09-30T12:56:07;100793.78;;;19.73;67.49
66090;BME280;53113;45.602;11.904;2022-09-30T12:58:37;100795.06;;;19.73;67.61
66090;BME280;53113;45.602;11.904;2022-09-30T13:01:14;100796.45;;;19.74;67.70
66090;BME280;53113;45.602;11.904;2022-09-30T13:03:49;100797.05;;;19.71;67.75
66090;BME280;53113;45.602;11.904;2022-09-30T13:06:18;100800.81;;;19.69;68.11
66090;BME280;53113;45.602;11.904;2022-09-30T13:14:40;100798.21;;;19.60;68.60
66090;BME280;53113;45.602;11.904;2022-09-30T13:19:54;100803.64;;;19.58;68.48
66090;BME280;53113;45.602;11.904;2022-09-30T13:27:45;100813.13;;;19.46;68.75
66090;BME280;53113;45.602;11.904;2022-09-30T13:32:39;100823.30;;;19.37;68.81
66090;BME280;53113;45.602;11.904;2022-09-30T13:38:32;100828.67;;;19.33;68.84
66090;BME280;53113;45.602;11.904;2022-09-30T13:41:19;100836.78;;;19.30;68.93
66090;BME280;53113;45.602;11.904;2022-09-30T13:49:30;100849.95;;;19.25;69.22
66090;BME280;53113;45.602;11.904;2022-09-30T13:51:50;100850.87;;;19.22;69.26
66090;BME280;53113;45.602;11.904;2022-09-30T13:54:33;100853.86;;;19.17;69.38
66090;BME280;53113;45.602;11.904;2022-09-30T13:57:04;100852.73;;;19.13;69.45
66090;BME280;53113;45.602;11.904;2022-09-30T14:05:45;100862.86;;;19.09;69.74
66090;BME280;53113;45.602;11.904;2022-09-30T14:14:02;100865.38;;;19.01;70.12
66090;BME280;53113;45.602;11.904;2022-09-30T14:21:55;100860.98;;;18.97;70.20
66090;BME280;53113;45.602;11.904;2022-09-30T14:24:24;100858.71;;;18.96;70.26
66090;BME280;53113;45.602;11.904;2022-09-30T14:29:35;100858.70;;;18.95;70.37
66090;BME280;53113;45.602;11.904;2022-09-30T14:32:15;100853.23;;;18.92;70.49
66090;BME280;53113;45.602;11.904;2022-09-30T14:34:45;100849.72;;;18.90;70.55
66090;BME280;53113;45.602;11.904;2022-09-30T14:37:18;100851.98;;;18.87;70.54
66090;BME280;53113;45.602;11.904;2022-09-30T14:39:47;100847.06;;;18.84;70.55
66090;BME280;53113;45.602;11.904;2022-09-30T14:42:29;100844.10;;;18.84;70.54
66090;BME280;53113;45.602;11.904;2022-09-30T14:44:58;100842.59;;;18.83;70.53
66090;BME280;53113;45.602;11.904;2022-09-30T14:47:36;100841.86;;;18.81;70.60
66090;BME280;53113;45.602;11.904;2022-09-30T14:50:09;100841.45;;;18.78;70.66
66090;BME280;53113;45.602;11.904;2022-09-30T15:38:35;100886.95;;;18.47;71.50
66090;BME280;53113;45.602;11.904;2022-09-30T16:16:28;100913.66;;;18.34;72.10
66090;BME280;53113;45.602;11.904;2022-09-30T16:23:46;100922.19;;;18.33;72.11
66090;BME280;53113;45.602;11.904;2022-09-30T17:18:51;100954.05;;;18.07;71.84
66090;BME280;53113;45.602;11.904;2022-09-30T17:25:39;100961.05;;;18.02;72.00
66090;BME280;53113;45.602;11.904;2022-09-30T18:15:58;100996.33;;;17.75;72.28
66090;BME280;53113;45.602;11.904;2022-09-30T18:56:30;100987.04;;;17.51;72.48
66090;BME280;53113;45.602;11.904;2022-09-30T19:03:47;100985.48;;;17.46;72.68
66090;BME280;53113;45.602;11.904;2022-09-30T19:30:21;101006.32;;;17.20;73.10
66090;BME280;53113;45.602;11.904;2022-09-30T20:14:32;101033.02;;;17.04;73.89
66090;BME280;53113;45.602;11.904;2022-09-30T21:46:55;101089.91;;;17.05;74.03
66090;BME280;53113;45.602;11.904;2022-09-30T22:10:56;101108.67;;;17.09;73.97
66090;BME280;53113;45.602;11.904;2022-09-30T22:35:06;101105.77;;;17.06;73.81
66090;BME280;53113;45.602;11.904;2022-09-30T23:46:52;101119.69;;;16.84;74.23
